To NAV CANADA Home Page Login to a new session Search on AWWS site Disclaimer Vers la page française équivalente Tips FAQ What's new on the site To the Forecasts and Observations / NOTAM section To "File a Flight Plan" website Publications and other links Update of the User's profile FIC Telephone Numbers My Weather Data Folder Route Weather Data Regional Weather Data Local Weather Data To the Forecasts and Observations / NOTAM section
Request Generated 10/21/2018 at 04:27:25 UTC . Weather information available at that time is displayed.

METAR/TAF

IQALUIT/NU    

METAR CYFB 210400Z 05010KT 15SM SCT012 OVC062 M09/M11 A2990 RMK SC4SC4 SLP129=
METAR CYFB 210300Z 05009KT 15SM SCT012 OVC062 M09/M10 A2990 RMK SC4SC4 SLP130=
METAR CYFB 210200Z 05008KT 15SM SCT012 OVC058 M09/M10 A2989 RMK SC4SC4 SLP127=

TAF CYFB 202341Z 2100/2124 05008KT P6SM SCT012 BKN060 TEMPO 2100/2106
P6SM -SN BKN012
FM210600 04006KT P6SM FEW012 SCT060 TEMPO 2106/2124 BKN012
BECMG 2115/2117 34007KT
RMK NXT FCST BY 210600Z=
Your time UTC time
Weather data provided by Environment Canada and NAV CANADA